Time;durP1;ratioP1;P1;durP2;ratioP2;P2;SDS_P1;SDS_P2;PMS_P1;PMS_P2;Temp;Humidity;BMP_temperature;BMP_pressure;BME280_temperature;BME280_humidity;BME280_pressure;Samples;Min_cycle;Max_cycle;Signal;HPM_P1;HPM_P2
2022/06/05 00:00:49;;;;;;;6.45;5.88;;;;;;;20.82;97.02;64156.91;4982434;28;20227;-77
2022/06/05 00:03:25;;;;;;;9.10;5.32;;;;;;;20.81;97.59;64155.88;4973252;28;20215;-77
2022/06/05 00:06:02;;;;;;;7.10;5.82;;;;;;;20.81;97.51;64153.28;4964964;29;20220;-77
2022/06/05 00:08:40;;;;;;;6.82;5.63;;;;;;;20.83;97.84;64157.44;4975322;28;20199;-77
2022/06/05 00:11:11;;;;;;;5.88;5.32;;;;;;;20.80;97.93;64154.81;4984618;28;20241;-76
2022/06/05 00:13:44;;;;;;;8.00;5.68;;;;;;;20.81;97.63;64157.94;4983523;28;20259;-77
2022/06/05 00:16:11;;;;;;;6.97;5.80;;;;;;;20.79;98.43;64150.69;4981389;28;20266;-76
2022/06/05 00:18:42;;;;;;;6.95;6.20;;;;;;;20.74;98.31;64146.00;4984704;28;20222;-77
2022/06/05 00:21:09;;;;;;;6.88;5.93;;;;;;;20.72;98.57;64143.91;4984247;28;20219;-78
2022/06/05 00:23:37;;;;;;;5.38;4.97;;;;;;;20.74;99.05;64146.00;4984346;28;20219;-77
2022/06/05 00:26:13;;;;;;;11.27;6.57;;;;;;;20.81;99.12;64155.34;4984630;28;20270;-77
2022/06/05 00:28:48;;;;;;;5.57;5.07;;;;;;;20.70;99.83;64141.81;4985028;28;20241;-77
2022/06/05 00:31:25;;;;;;;9.02;5.40;;;;;;;20.79;99.53;64151.19;4971634;28;20220;-77
2022/06/05 00:33:53;;;;;;;5.78;5.32;;;;;;;20.72;100.00;64146.47;4978324;28;20196;-77
2022/06/05 00:36:35;;;;;;;7.32;5.50;;;;;;;20.69;100.00;64146.44;4981226;28;20287;-77
2022/06/05 00:39:09;;;;;;;10.77;5.72;;;;;;;20.61;100.00;64140.69;4979379;28;20188;-77
2022/06/05 00:41:52;;;;;;;7.68;5.93;;;;;;;20.57;100.00;64130.81;4975623;28;20228;-77
2022/06/05 00:44:24;;;;;;;6.25;5.43;;;;;;;20.47;100.00;64117.78;4981022;28;20558;-77
2022/06/05 00:46:52;;;;;;;10.43;6.63;;;;;;;20.60;100.00;64134.47;4984282;28;20299;-78
2022/06/05 00:49:22;;;;;;;10.07;6.57;;;;;;;20.65;100.00;64142.28;4983699;28;20200;-77
2022/06/05 00:51:49;;;;;;;9.52;6.45;;;;;;;20.62;100.00;64136.56;4993561;28;20223;-77
2022/06/05 00:54:16;;;;;;;8.23;6.57;;;;;;;20.60;100.00;64131.88;4977220;28;20271;-77
2022/06/05 00:56:43;;;;;;;6.28;5.70;;;;;;;20.59;100.00;64135.50;4965003;28;20286;-77
2022/06/05 00:59:13;;;;;;;7.72;6.20;;;;;;;20.58;100.00;64126.69;4970684;28;20614;-77
2022/06/05 01:01:42;;;;;;;8.43;7.10;;;;;;;20.59;100.00;64128.25;4982405;28;20211;-77
2022/06/05 01:04:10;;;;;;;7.28;6.68;;;;;;;20.54;100.00;64127.69;4984131;28;20275;-76
2022/06/05 01:06:38;;;;;;;7.57;6.78;;;;;;;20.56;100.00;64129.78;4987256;28;20226;-77
2022/06/05 01:09:06;;;;;;;15.73;6.50;;;;;;;20.41;100.00;64111.53;4983116;28;20504;-78
2022/06/05 01:11:47;;;;;;;7.50;6.22;;;;;;;20.16;100.00;64085.97;4986385;28;20277;-77
2022/06/05 01:14:22;;;;;;;9.10;6.97;;;;;;;19.98;100.00;64067.16;4979826;28;20195;-77
2022/06/05 01:16:56;;;;;;;7.35;6.65;;;;;;;19.78;100.00;64045.75;4973680;28;20235;-76
2022/06/05 01:19:41;;;;;;;9.10;8.10;;;;;;;19.75;100.00;64045.75;4985333;28;20338;-77
2022/06/05 01:22:31;;;;;;;9.93;6.95;;;;;;;19.79;100.00;64046.81;4985851;28;20207;-77
2022/06/05 01:25:24;;;;;;;10.02;6.85;;;;;;;19.77;100.00;64044.72;4967184;28;20227;-78
2022/06/05 01:27:58;;;;;;;9.73;7.35;;;;;;;19.72;100.00;64042.63;4986904;28;20187;-78
2022/06/05 01:30:26;;;;;;;7.05;6.32;;;;;;;19.70;100.00;64037.44;4977885;28;20215;-77
2022/06/05 01:33:00;;;;;;;7.65;6.40;;;;;;;19.73;100.00;64040.56;4970586;28;20268;-76
2022/06/05 01:35:34;;;;;;;7.72;7.03;;;;;;;19.68;100.00;64041.03;4971774;28;20246;-77
2022/06/05 01:38:07;;;;;;;7.25;6.63;;;;;;;19.72;100.00;64042.09;4968054;28;20246;-76
2022/06/05 01:40:40;;;;;;;7.03;6.22;;;;;;;19.72;100.00;64037.47;4973986;28;20562;-77
2022/06/05 01:43:11;;;;;;;11.30;6.95;;;;;;;19.65;100.00;64032.22;4986779;28;20191;-77
2022/06/05 01:45:44;;;;;;;8.43;5.88;;;;;;;19.66;100.00;64035.84;4986666;28;20227;-77
2022/06/05 01:48:15;;;;;;;7.18;6.53;;;;;;;19.65;100.00;64032.75;4987034;28;20184;-77
2022/06/05 01:50:47;;;;;;;11.48;6.22;;;;;;;19.73;100.00;64043.13;4982677;28;20412;-77
2022/06/05 01:53:19;;;;;;;7.88;6.10;;;;;;;19.75;100.00;64045.75;4982724;28;20522;-76
2022/06/05 01:55:53;;;;;;;7.65;6.93;;;;;;;19.83;100.00;64051.50;4983737;28;20239;-76
2022/06/05 01:58:31;;;;;;;7.65;6.70;;;;;;;19.91;100.00;64062.44;4986824;28;20510;-77
2022/06/05 02:01:03;;;;;;;12.55;6.55;;;;;;;19.97;100.00;64068.16;4986854;28;20220;-77
2022/06/05 02:03:35;;;;;;;6.90;6.28;;;;;;;20.03;100.00;64071.84;4986549;28;20210;-77
2022/06/05 02:06:07;;;;;;;6.93;6.22;;;;;;;20.02;100.00;64073.41;4987401;28;20219;-77
2022/06/05 02:08:36;;;;;;;7.53;6.55;;;;;;;20.01;100.00;64070.28;4985836;28;20194;-76
2022/06/05 02:11:08;;;;;;;7.03;6.32;;;;;;;20.05;100.00;64071.38;4982163;28;20306;-78
2022/06/05 02:13:36;;;;;;;6.30;5.85;;;;;;;20.04;100.00;64076.00;4988978;28;20337;-77
2022/06/05 02:16:04;;;;;;;7.95;6.07;;;;;;;20.03;100.00;64071.84;4990127;28;20269;-76
2022/06/05 02:18:32;;;;;;;12.32;6.32;;;;;;;20.02;100.00;64070.81;4990348;28;20199;-76
2022/06/05 02:20:59;;;;;;;8.23;6.72;;;;;;;20.02;100.00;64070.81;4991350;28;20235;-75
2022/06/05 02:23:28;;;;;;;7.45;6.32;;;;;;;19.97;100.00;64063.53;4991526;28;20234;-78
2022/06/05 02:25:56;;;;;;;7.70;6.35;;;;;;;19.91;100.00;64061.94;4992308;28;20214;-77
2022/06/05 02:28:23;;;;;;;7.57;6.47;;;;;;;19.99;100.00;64070.78;4986444;28;20500;-77
2022/06/05 02:31:03;;;;;;;9.30;6.45;;;;;;;19.83;100.00;64053.59;4986038;28;20407;-77
2022/06/05 02:33:41;;;;;;;9.05;6.60;;;;;;;19.78;100.00;64048.88;4981851;28;20196;-77
2022/06/05 02:36:20;;;;;;;9.02;6.28;;;;;;;19.72;100.00;64040.03;4975808;28;20233;-77
2022/06/05 02:39:01;;;;;;;7.90;6.25;;;;;;;19.67;100.00;64036.88;4987485;28;20196;-77
2022/06/05 02:41:33;;;;;;;10.13;6.07;;;;;;;19.63;100.00;64030.13;4987067;28;20454;-78
2022/06/05 02:47:03;;;;;;;8.60;7.05;;;;;;;19.63;100.00;64028.06;4971319;28;20218;-77
2022/06/05 02:49:35;;;;;;;6.90;6.25;;;;;;;19.53;100.00;64023.31;4977961;28;20556;-78
2022/06/05 02:52:06;;;;;;;11.45;6.80;;;;;;;19.47;100.00;64014.47;4985566;28;20476;-77
2022/06/05 02:54:40;;;;;;;10.10;6.68;;;;;;;19.47;100.00;64013.97;4983356;28;20199;-76
2022/06/05 02:57:07;;;;;;;8.10;7.25;;;;;;;19.41;100.00;64010.81;4968374;28;20286;-77
2022/06/05 02:59:34;;;;;;;8.48;7.45;;;;;;;19.45;100.00;64009.81;4965859;28;20196;-77
2022/06/05 03:04:47;;;;;;;8.52;7.68;;;;;;;19.33;100.00;63996.78;4985218;28;20248;-76
2022/06/05 03:07:13;;;;;;;11.05;7.55;;;;;;;19.33;100.00;64001.94;4969709;28;20192;-77
2022/06/05 03:09:40;;;;;;;11.38;7.43;;;;;;;19.27;100.00;63993.09;4967661;28;20207;-78
2022/06/05 03:12:08;;;;;;;9.25;7.25;;;;;;;19.27;100.00;63991.03;4983719;28;20199;-77
2022/06/05 03:14:35;;;;;;;11.07;7.00;;;;;;;19.24;100.00;63993.06;4984856;28;20263;-77
2022/06/05 03:17:03;;;;;;;8.93;7.88;;;;;;;19.25;100.00;63991.53;4985560;28;20231;-77
2022/06/05 03:19:30;;;;;;;9.57;6.82;;;;;;;19.23;100.00;63988.91;4984376;28;20512;-77
2022/06/05 03:21:57;;;;;;;7.45;6.70;;;;;;;19.28;100.00;63997.22;4981296;28;20294;-78
2022/06/05 03:24:23;;;;;;;7.22;6.63;;;;;;;19.35;100.00;64007.13;4965574;28;20560;-78
2022/06/05 03:26:51;;;;;;;7.20;6.68;;;;;;;19.34;100.00;64003.53;4965938;28;20220;-77
2022/06/05 03:29:18;;;;;;;10.18;7.05;;;;;;;19.39;100.00;64008.72;4965301;28;20227;-77
2022/06/05 03:31:45;;;;;;;8.65;6.93;;;;;;;19.47;100.00;64016.53;4984171;28;20227;-77
2022/06/05 03:34:13;;;;;;;7.55;6.80;;;;;;;19.56;100.00;64023.34;4985780;28;20235;-77
2022/06/05 03:36:40;;;;;;;11.80;7.35;;;;;;;19.64;100.00;64034.28;4974380;28;20246;-77
2022/06/05 03:39:07;;;;;;;8.07;6.15;;;;;;;19.72;100.00;64040.03;4970951;28;20195;-76
2022/06/05 03:41:34;;;;;;;12.15;6.72;;;;;;;19.83;100.00;64056.69;4985540;28;20496;-78
2022/06/05 03:44:01;;;;;;;7.28;6.32;;;;;;;19.92;100.00;64068.13;4985036;28;20375;-78
2022/06/05 03:46:28;;;;;;;9.75;7.05;;;;;;;20.02;100.00;64071.31;4968772;28;20397;-77
2022/06/05 03:48:55;;;;;;;12.27;7.22;;;;;;;20.17;100.00;64083.91;4984339;28;20242;-77
2022/06/05 03:51:24;;;;;;;7.93;6.75;;;;;;;20.24;100.00;64094.31;4985143;28;20228;-77
2022/06/05 03:53:51;;;;;;;10.43;7.35;;;;;;;20.39;100.00;64115.16;4983526;28;20207;-76
2022/06/05 03:56:20;;;;;;;8.70;6.80;;;;;;;20.49;100.00;64120.41;4971714;28;20306;-77
2022/06/05 03:58:48;;;;;;;7.55;6.75;;;;;;;20.59;100.00;64133.44;4980943;28;20246;-76
2022/06/05 04:01:17;;;;;;;9.90;6.65;;;;;;;20.65;100.00;64139.69;4984719;28;20226;-76
2022/06/05 04:03:45;;;;;;;13.02;7.55;;;;;;;20.67;100.00;64141.25;4985306;28;20207;-77
2022/06/05 04:06:14;;;;;;;10.60;7.90;;;;;;;20.79;100.00;64155.84;4976714;28;20219;-76
2022/06/05 04:08:42;;;;;;;10.52;8.52;;;;;;;20.88;100.00;64162.66;4984760;28;20242;-77
2022/06/05 04:11:12;;;;;;;12.52;7.70;;;;;;;20.95;100.00;64172.56;4984592;28;20223;-77
2022/06/05 04:13:40;;;;;;;8.77;7.80;;;;;;;21.05;100.00;64186.16;4970360;28;20223;-77
2022/06/05 04:16:11;;;;;;;12.52;8.55;;;;;;;21.03;100.00;64178.88;4984085;28;20512;-77
2022/06/05 04:18:38;;;;;;;10.63;8.93;;;;;;;21.12;100.00;64188.25;4984661;28;20195;-77
2022/06/05 04:21:07;;;;;;;9.63;7.82;;;;;;;21.22;99.97;64196.13;4984255;28;20590;-77
2022/06/05 04:23:34;;;;;;;10.52;8.65;;;;;;;21.10;100.00;64180.47;4981598;28;20207;-77
2022/06/05 04:26:02;;;;;;;12.25;8.15;;;;;;;21.07;100.00;64185.63;4977929;28;20290;-77
2022/06/05 04:28:29;;;;;;;10.40;8.38;;;;;;;21.32;100.00;64209.16;4983996;28;20211;-78
2022/06/05 04:30:56;;;;;;;14.32;9.18;;;;;;;21.47;99.40;64226.88;4983504;28;20215;-76
2022/06/05 04:33:22;;;;;;;8.98;8.18;;;;;;;21.50;99.20;64227.94;4964651;28;20196;-76
2022/06/05 04:35:49;;;;;;;13.07;8.23;;;;;;;21.32;99.92;64209.16;4983338;28;20235;-77
2022/06/05 04:38:16;;;;;;;12.45;8.15;;;;;;;21.07;100.00;64183.03;4984784;28;20211;-76
2022/06/05 04:40:43;;;;;;;10.90;9.65;;;;;;;21.24;100.00;64200.81;4977598;28;20231;-77
2022/06/05 04:43:11;;;;;;;15.32;8.80;;;;;;;21.14;100.00;64187.25;4978046;28;20210;-76
2022/06/05 04:45:39;;;;;;;19.38;9.90;;;;;;;21.01;100.00;64179.38;4996433;28;20274;-77
2022/06/05 04:48:06;;;;;;;12.95;8.15;;;;;;;20.97;100.00;64169.47;4996802;28;20199;-76
2022/06/05 04:50:33;;;;;;;10.88;9.70;;;;;;;21.14;100.00;64187.75;4989279;28;20249;-77
2022/06/05 04:53:00;;;;;;;14.38;9.23;;;;;;;21.26;100.00;64197.69;4982227;28;20238;-77
2022/06/05 04:55:26;;;;;;;10.20;8.75;;;;;;;21.42;100.00;64216.47;4975635;28;20224;-77
2022/06/05 04:57:53;;;;;;;16.55;9.82;;;;;;;21.41;100.00;64210.78;4988018;28;20566;-77
2022/06/05 05:00:23;;;;;;;12.25;9.23;;;;;;;21.52;100.00;64226.91;4979315;28;20220;-76
2022/06/05 05:02:50;;;;;;;12.20;8.98;;;;;;;21.81;100.00;64261.91;4984722;28;20547;-76
2022/06/05 05:05:17;;;;;;;11.27;9.48;;;;;;;21.79;100.00;64255.66;4987334;28;20392;-77
2022/06/05 05:07:43;;;;;;;9.80;8.73;;;;;;;21.92;100.00;64271.34;4984153;28;20199;-78
2022/06/05 05:10:11;;;;;;;12.32;10.23;;;;;;;22.01;99.09;64277.63;4975860;28;20396;-78
2022/06/05 05:12:39;;;;;;;15.57;10.30;;;;;;;21.84;100.00;64259.84;4987204;28;20260;-76
2022/06/05 05:15:07;;;;;;;20.33;10.50;;;;;;;21.76;100.00;64254.59;4986851;28;20223;-78
2022/06/05 05:17:35;;;;;;;12.98;9.02;;;;;;;21.87;100.00;64266.09;4969421;28;20579;-78
2022/06/05 05:20:03;;;;;;;16.20;10.48;;;;;;;21.94;100.00;64273.44;4975457;28;20231;-77
2022/06/05 05:22:36;;;;;;;15.32;10.85;;;;;;;21.93;99.89;64271.84;4968088;29;20216;-76
2022/06/05 05:25:03;;;;;;;15.65;10.63;;;;;;;21.74;100.00;64249.91;4981526;28;20594;-78
2022/06/05 05:27:30;;;;;;;12.05;10.60;;;;;;;21.85;100.00;64266.59;4985648;28;20403;-76
2022/06/05 05:29:57;;;;;;;14.98;10.18;;;;;;;21.91;100.00;64270.28;4982108;28;20440;-77
2022/06/05 05:32:24;;;;;;;14.40;9.75;;;;;;;22.03;100.00;64285.44;4976971;28;20211;-77
2022/06/05 05:34:52;;;;;;;17.48;10.48;;;;;;;22.09;99.96;64286.00;4987132;28;20199;-77
2022/06/05 05:37:19;;;;;;;15.68;9.57;;;;;;;22.19;100.00;64299.56;4986612;28;20227;-77
2022/06/05 05:42:30;;;;;;;14.82;10.57;;;;;;;22.27;97.97;64310.50;4971048;28;20190;-77
2022/06/05 05:44:58;;;;;;;11.80;10.18;;;;;;;22.42;96.42;64317.88;4986900;28;20220;-77
2022/06/05 05:47:27;;;;;;;21.17;10.43;;;;;;;22.28;98.12;64308.44;4985184;28;20278;-77
2022/06/05 05:49:57;;;;;;;12.93;10.18;;;;;;;22.20;97.53;64302.66;4986627;28;20504;-78
2022/06/05 05:52:25;;;;;;;14.98;10.80;;;;;;;22.18;97.88;64298.50;4989608;28;20203;-78
2022/06/05 05:54:52;;;;;;;15.20;9.40;;;;;;;22.41;97.16;64314.25;4986483;28;20548;-78
2022/06/05 05:57:20;;;;;;;15.25;10.00;;;;;;;22.44;95.87;64330.88;4984076;28;20290;-77
2022/06/05 05:59:47;;;;;;;17.00;9.15;;;;;;;22.71;93.78;64348.75;4986869;28;20244;-78
2022/06/05 06:02:18;;;;;;;18.08;10.10;;;;;;;22.84;94.74;64369.59;4987004;28;20226;-78
2022/06/05 06:04:46;;;;;;;16.42;9.45;;;;;;;23.03;92.95;64388.94;4970606;28;20211;-77
2022/06/05 06:07:14;;;;;;;12.98;9.85;;;;;;;22.99;91.85;64384.78;4987191;28;20199;-77
2022/06/05 06:09:41;;;;;;;13.43;10.32;;;;;;;22.93;92.07;64373.81;4986546;28;20219;-77
2022/06/05 06:12:08;;;;;;;13.30;8.55;;;;;;;22.96;93.78;64376.97;4986725;28;20230;-77
2022/06/05 12:30:38;;;;;;;2.22;1.60;;;;;;;29.52;34.56;65064.38;5190954;23;1301678;-81
2022/06/05 12:33:15;;;;;;;2.22;2.00;;;;;;;29.15;35.33;65030.72;5031371;28;20190;-81
2022/06/05 12:35:45;;;;;;;2.80;1.92;;;;;;;28.72;36.23;64975.03;5030401;28;20229;-79
2022/06/05 12:38:33;;;;;;;2.13;1.92;;;;;;;28.30;37.74;64939.84;5041138;28;20225;-79
2022/06/05 12:41:06;;;;;;;2.72;1.95;;;;;;;28.32;37.89;64936.69;5050924;28;20220;-79
2022/06/05 12:43:48;;;;;;;2.60;2.40;;;;;;;28.59;37.12;64967.16;5051543;28;20193;-79
2022/06/05 12:46:31;;;;;;;5.93;2.17;;;;;;;28.83;36.95;64991.84;5046462;28;20236;-80
2022/06/05 12:49:13;;;;;;;2.30;2.17;;;;;;;28.73;36.95;64984.50;5048034;28;20208;-79
2022/06/05 12:51:45;;;;;;;4.40;2.17;;;;;;;28.44;37.94;64951.91;5051638;28;20461;-79
2022/06/05 12:54:24;;;;;;;5.45;2.05;;;;;;;28.33;38.65;64943.00;5050188;28;20228;-79
2022/06/05 12:56:55;;;;;;;5.22;2.90;;;;;;;28.28;39.05;64932.50;5048203;28;20197;-78
2022/06/05 12:59:28;;;;;;;4.53;2.30;;;;;;;28.48;38.62;64952.44;5046055;28;20233;-80
2022/06/05 13:02:18;;;;;;;2.85;2.65;;;;;;;28.56;39.26;64961.38;5047953;28;20193;-78
2022/06/05 13:04:52;;;;;;;6.82;2.40;;;;;;;28.45;39.53;64955.06;5048375;28;20474;-80
2022/06/05 13:07:22;;;;;;;2.88;2.35;;;;;;;28.95;39.72;65004.97;5046405;28;20509;-79
2022/06/05 13:09:54;;;;;;;3.10;2.90;;;;;;;29.47;37.74;65059.63;5047606;28;20268;-79
2022/06/05 13:12:27;;;;;;;7.20;2.50;;;;;;;30.10;37.14;65127.97;5047184;28;20224;-79
2022/06/05 13:15:00;;;;;;;2.75;2.55;;;;;;;30.16;36.50;65133.75;5050738;28;20228;-78
2022/06/05 13:17:45;;;;;;;2.97;2.55;;;;;;;30.40;36.49;65154.28;5046501;28;20248;-80
2022/06/05 13:20:24;;;;;;;3.28;2.50;;;;;;;31.15;34.98;65235.28;5047730;28;20252;-80
2022/06/05 13:22:56;;;;;;;3.72;3.10;;;;;;;31.45;35.90;65264.25;5053876;28;20181;-81
2022/06/05 13:25:32;;;;;;;3.03;2.42;;;;;;;31.17;34.11;65232.13;5052958;28;20276;-80
2022/06/05 13:28:11;;;;;;;3.28;2.33;;;;;;;31.19;34.12;65239.50;5048824;28;20197;-80
2022/06/05 13:30:51;;;;;;;3.85;3.55;;;;;;;31.07;34.40;65226.34;5054494;28;20220;-80
2022/06/05 13:33:25;;;;;;;3.10;2.30;;;;;;;30.96;34.63;65220.03;5052140;28;20229;-79
2022/06/05 13:35:59;;;;;;;4.05;2.47;;;;;;;30.68;34.42;65182.66;5051413;28;20197;-78
2022/06/05 13:38:30;;;;;;;6.72;2.10;;;;;;;30.47;34.88;65164.28;5050634;28;20276;-80
2022/06/05 13:41:02;;;;;;;3.05;2.63;;;;;;;30.08;35.37;65122.72;5052589;28;20216;-80
2022/06/05 13:43:34;;;;;;;2.58;2.35;;;;;;;30.09;35.43;65121.66;5046047;28;20190;-81
2022/06/05 13:46:24;;;;;;;2.25;2.05;;;;;;;30.10;35.78;65125.34;5053316;28;20212;-81
2022/06/05 13:49:03;;;;;;;3.80;2.20;;;;;;;29.66;36.90;65073.81;5051811;28;20281;-80
2022/06/05 13:51:33;;;;;;;3.10;2.90;;;;;;;29.30;38.47;65038.63;5044140;28;20208;-81
2022/06/05 13:54:12;;;;;;;5.18;3.00;;;;;;;29.68;38.48;65080.66;5051259;28;20218;-80
2022/06/05 13:56:45;;;;;;;4.05;2.80;;;;;;;30.48;37.39;65162.16;5051339;28;20189;-82
2022/06/05 13:59:21;;;;;;;6.95;2.90;;;;;;;30.90;37.40;65213.72;5051737;28;20225;-79
2022/06/05 14:02:06;;;;;;;3.13;2.78;;;;;;;31.22;37.29;65237.38;5048987;28;20211;-81
2022/06/05 14:04:53;;;;;;;6.38;2.95;;;;;;;31.80;35.75;65297.38;5047844;28;20352;-79
2022/06/05 14:07:21;;;;;;;3.20;2.80;;;;;;;32.44;34.31;65370.59;5048977;28;20198;-80
2022/06/05 14:09:51;;;;;;;5.72;2.83;;;;;;;33.05;32.92;65429.03;5047777;28;20231;-81
2022/06/05 14:12:22;;;;;;;5.35;4.20;;;;;;;33.49;31.30;65480.19;5049492;28;20264;-80
2022/06/05 14:14:49;;;;;;;2.97;2.53;;;;;;;33.57;31.59;65485.97;5048149;28;20285;-79
2022/06/05 14:17:25;;;;;;;4.10;3.78;;;;;;;32.29;33.68;65351.63;5047687;28;20216;-79
2022/06/05 14:19:58;;;;;;;7.57;3.30;;;;;;;33.09;31.91;65435.38;5042775;28;20235;-76
2022/06/05 14:22:27;;;;;;;2.72;2.53;;;;;;;33.55;31.09;65487.03;5037741;28;20197;-77
2022/06/05 14:24:57;;;;;;;3.50;2.33;;;;;;;32.93;31.19;65423.81;5043785;28;20529;-76
2022/06/05 14:27:31;;;;;;;3.58;2.30;;;;;;;32.77;31.58;65410.09;5044165;28;20193;-79
2022/06/05 14:30:00;;;;;;;3.67;2.45;;;;;;;32.30;32.50;65357.94;5043036;28;20253;-78
2022/06/05 14:32:29;;;;;;;2.60;2.15;;;;;;;32.46;31.48;65369.53;5032453;28;20194;-80
2022/06/05 14:35:31;;;;;;;2.40;2.30;;;;;;;31.03;32.75;65222.66;5045729;28;20529;-78
2022/06/05 14:38:04;;;;;;;1.85;1.75;;;;;;;30.67;34.75;65186.88;5045187;28;20410;-78
2022/06/05 14:40:37;;;;;;;2.25;2.08;;;;;;;31.59;32.41;65278.97;5049436;28;20221;-80
2022/06/05 14:43:12;;;;;;;2.90;2.70;;;;;;;32.44;31.68;65372.72;5050751;28;20183;-80
2022/06/05 14:45:45;;;;;;;2.47;2.20;;;;;;;32.23;32.30;65348.47;5044915;28;20232;-79
2022/06/05 14:48:19;;;;;;;2.65;2.55;;;;;;;32.69;30.90;65396.94;5042811;28;20221;-77
2022/06/05 14:50:57;;;;;;;2.28;2.10;;;;;;;33.64;29.61;65496.53;5048695;28;20639;-78
2022/06/05 14:53:37;;;;;;;1.77;1.73;;;;;;;34.40;29.01;65575.59;5040099;28;20206;-77
2022/06/05 14:59:00;;;;;;;2.20;1.95;;;;;;;33.02;30.26;65433.81;5048018;28;20227;-78
2022/06/05 15:01:35;;;;;;;5.30;2.30;;;;;;;32.54;31.13;65380.59;5045541;28;20225;-76
2022/06/05 15:04:11;;;;;;;3.50;1.90;;;;;;;32.50;31.98;65382.19;5040245;28;20247;-78
2022/06/05 15:06:46;;;;;;;2.88;2.17;;;;;;;31.80;32.93;65297.91;5040480;28;20244;-77
2022/06/05 15:09:20;;;;;;;8.48;2.38;;;;;;;32.64;31.91;65394.31;5032688;28;20225;-78
2022/06/05 15:11:54;;;;;;;4.43;2.17;;;;;;;33.08;31.31;65440.16;5048870;28;20205;-79
2022/06/05 15:14:28;;;;;;;2.00;1.90;;;;;;;33.52;32.21;65483.88;5046193;28;20225;-79
2022/06/05 15:17:09;;;;;;;2.45;2.30;;;;;;;34.55;30.84;65589.31;5045425;28;20262;-78
2022/06/05 15:19:37;;;;;;;3.03;2.30;;;;;;;33.76;30.29;65511.28;5045899;28;20237;-81
2022/06/05 15:22:23;;;;;;;2.08;1.98;;;;;;;32.82;32.37;65410.09;5044776;28;20248;-77
2022/06/05 15:24:55;;;;;;;8.07;3.15;;;;;;;33.49;31.12;65480.19;5026930;28;20217;-78
2022/06/05 15:27:27;;;;;;;5.78;2.13;;;;;;;32.54;31.98;65380.59;5041456;28;20208;-78
2022/06/05 15:30:00;;;;;;;2.53;2.28;;;;;;;31.79;33.28;65301.59;5039160;28;20220;-78
2022/06/05 15:32:36;;;;;;;4.45;2.42;;;;;;;31.69;34.33;65296.88;5031424;28;20193;-77
2022/06/05 15:35:14;;;;;;;2.55;2.42;;;;;;;31.66;35.09;65291.09;5047364;28;20313;-77
2022/06/05 15:38:01;;;;;;;5.65;2.58;;;;;;;31.95;34.00;65313.72;5043584;28;20193;-77
2022/06/05 15:40:42;;;;;;;5.95;2.60;;;;;;;31.37;35.59;65255.84;5027503;28;20233;-79
2022/06/05 15:43:21;;;;;;;2.67;2.47;;;;;;;31.30;35.23;65250.53;5028399;28;20193;-78
2022/06/05 15:46:08;;;;;;;2.63;2.53;;;;;;;31.09;35.69;65228.44;5039325;28;20256;-77
2022/06/05 15:48:55;;;;;;;2.60;2.03;;;;;;;30.81;36.69;65202.16;5043224;28;20221;-77
2022/06/05 15:51:32;;;;;;;3.58;3.03;;;;;;;29.81;39.21;65097.47;5048416;28;20197;-76
2022/06/05 15:54:24;;;;;;;2.65;2.40;;;;;;;29.67;39.06;65076.97;5051281;28;20244;-76
2022/06/05 15:57:05;;;;;;;4.10;2.83;;;;;;;28.81;41.08;64987.13;5035846;28;20194;-76
2022/06/05 15:59:48;;;;;;;5.05;2.70;;;;;;;28.80;41.04;64986.59;5040406;28;20232;-77
2022/06/05 16:02:21;;;;;;;4.65;1.88;;;;;;;28.64;38.18;64971.88;5057078;28;20185;-77
2022/06/05 16:04:52;;;;;;;2.08;1.98;;;;;;;28.35;39.32;64945.06;5044282;28;20228;-77
2022/06/05 16:07:23;;;;;;;2.50;1.92;;;;;;;28.26;38.88;64932.50;5027897;28;20201;-77
2022/06/05 16:09:58;;;;;;;6.32;3.33;;;;;;;28.23;39.45;64929.84;5037713;28;20217;-77
2022/06/05 16:12:28;;;;;;;2.83;2.47;;;;;;;28.21;39.66;64927.25;5034564;28;20196;-77
2022/06/05 16:15:03;;;;;;;2.67;2.45;;;;;;;28.20;39.95;64923.56;5033318;28;20533;-77
2022/06/05 16:17:48;;;;;;;2.00;1.90;;;;;;;28.07;39.97;64912.53;5032886;28;20193;-77
2022/06/05 16:20:28;;;;;;;1.85;1.77;;;;;;;27.94;39.93;64902.03;5027627;28;20237;-77
2022/06/05 16:23:09;;;;;;;2.25;1.73;;;;;;;28.00;39.78;64910.97;5028707;28;20193;-76
2022/06/05 16:25:47;;;;;;;2.67;2.20;;;;;;;28.06;39.65;64911.50;5046201;28;20444;-76
2022/06/05 16:28:23;;;;;;;2.05;1.95;;;;;;;27.98;40.23;64905.72;5033559;28;20564;-77
2022/06/05 16:30:51;;;;;;;2.85;1.70;;;;;;;27.95;40.77;64902.56;5027561;28;20217;-78
2022/06/05 16:33:20;;;;;;;2.55;2.35;;;;;;;27.97;41.08;64902.59;5039925;28;20397;-78
2022/06/05 16:38:48;;;;;;;1.88;1.58;;;;;;;27.59;41.81;64856.91;5043177;28;20409;-78
2022/06/05 16:41:17;;;;;;;2.30;2.10;;;;;;;27.70;42.39;64874.22;5045676;28;20232;-78
2022/06/05 16:43:55;;;;;;;5.57;2.20;;;;;;;27.84;42.24;64894.13;5047631;28;20666;-79
2022/06/05 16:46:34;;;;;;;5.03;1.88;;;;;;;27.89;41.88;64893.63;5035103;28;20548;-78
2022/06/05 16:49:07;;;;;;;1.73;1.63;;;;;;;28.01;43.97;64906.75;5027969;28;20228;-79
2022/06/05 16:51:45;;;;;;;4.50;1.73;;;;;;;28.01;43.33;64906.75;5027809;28;20221;-80
2022/06/05 16:54:33;;;;;;;7.80;2.10;;;;;;;28.03;45.27;64910.97;5034241;28;20220;-78
2022/06/05 16:57:45;;;;;;;2.90;1.83;;;;;;;27.91;44.92;64893.13;5041695;28;20193;-78
2022/06/05 17:00:28;;;;;;;3.22;2.22;;;;;;;27.86;44.31;64891.00;5047102;28;20236;-79
2022/06/05 17:03:17;;;;;;;2.28;2.13;;;;;;;27.78;43.50;64882.09;5038398;28;20236;-78
2022/06/05 17:05:44;;;;;;;2.33;2.22;;;;;;;27.61;45.02;64864.75;5028390;28;20220;-78
2022/06/05 17:08:14;;;;;;;4.60;2.60;;;;;;;27.53;45.54;64855.84;5036568;28;20203;-78
2022/06/05 17:10:48;;;;;;;4.80;2.85;;;;;;;27.48;45.81;64851.13;5045907;28;20419;-79
2022/06/05 17:13:47;;;;;;;2.63;2.35;;;;;;;27.34;47.01;64839.03;5034111;28;20217;-79
2022/06/05 17:16:35;;;;;;;3.55;2.35;;;;;;;27.09;47.47;64810.69;5029681;28;20272;-78
2022/06/05 17:19:24;;;;;;;2.95;2.75;;;;;;;27.01;47.62;64802.31;5043756;28;20244;-79
2022/06/05 17:22:01;;;;;;;3.90;2.75;;;;;;;26.83;48.88;64782.91;5047491;28;20194;-79
2022/06/05 17:25:12;;;;;;;2.83;2.63;;;;;;;26.61;49.06;64759.81;5042127;28;20218;-81
2022/06/05 17:27:48;;;;;;;6.05;3.35;;;;;;;26.49;49.31;64747.25;5025499;28;20202;-80
2022/06/05 17:30:32;;;;;;;2.45;2.28;;;;;;;26.29;50.10;64728.88;5040470;28;20223;-80
2022/06/05 17:33:08;;;;;;;3.00;2.78;;;;;;;26.20;50.52;64717.88;5031584;28;20210;-78
2022/06/05 17:35:53;;;;;;;5.72;3.08;;;;;;;26.09;50.83;64708.44;5028332;28;20288;-80
2022/06/05 17:38:45;;;;;;;2.60;2.50;;;;;;;25.95;51.27;64689.06;5034747;28;20194;-79
2022/06/05 17:41:26;;;;;;;2.60;2.50;;;;;;;25.75;51.34;64675.91;5027413;28;20261;-80
2022/06/05 17:44:03;;;;;;;5.40;2.60;;;;;;;25.61;52.07;64661.22;5046453;28;20221;-78
2022/06/05 17:46:39;;;;;;;2.65;2.45;;;;;;;25.49;52.37;64648.66;5027329;28;20224;-78
2022/06/05 17:49:23;;;;;;;3.10;2.90;;;;;;;25.35;52.77;64630.84;5043308;28;20213;-78
2022/06/05 17:51:52;;;;;;;6.30;4.03;;;;;;;25.13;53.50;64605.19;5037562;28;20200;-79
2022/06/05 17:54:25;;;;;;;3.95;3.65;;;;;;;24.99;54.05;64594.16;5026591;28;20253;-79
2022/06/05 17:56:57;;;;;;;4.30;4.00;;;;;;;24.74;54.99;64565.38;5037960;28;20219;-79
2022/06/05 17:59:34;;;;;;;4.93;3.58;;;;;;;24.60;55.14;64550.16;5036503;28;20525;-79
2022/06/05 18:02:15;;;;;;;4.97;3.28;;;;;;;24.47;55.79;64539.69;5030623;28;20222;-79
2022/06/05 18:04:42;;;;;;;3.97;3.13;;;;;;;24.37;56.41;64526.63;5044674;28;20209;-80
2022/06/05 18:07:27;;;;;;;2.90;2.63;;;;;;;24.26;56.67;64512.50;5044575;28;20228;-80
2022/06/05 18:09:55;;;;;;;6.28;3.05;;;;;;;24.13;56.95;64501.50;5038823;28;20576;-81
2022/06/05 18:12:23;;;;;;;4.95;3.20;;;;;;;24.16;56.82;64506.72;5026552;28;20377;-79
2022/06/05 18:14:52;;;;;;;4.18;2.88;;;;;;;24.01;57.63;64491.53;5026893;28;20225;-80
2022/06/05 18:17:24;;;;;;;3.33;2.83;;;;;;;23.89;57.97;64479.47;5029879;28;20217;-78
2022/06/05 18:19:51;;;;;;;4.85;3.20;;;;;;;23.76;57.81;64460.16;5032297;28;20237;-80
2022/06/05 18:22:29;;;;;;;3.25;2.65;;;;;;;23.74;58.32;64465.84;5028911;28;20527;-79
2022/06/05 18:24:56;;;;;;;2.50;2.40;;;;;;;23.67;58.66;64453.84;5030075;28;20217;-78